ADDS METAR Data INFO
IDs: Format: Raw Decoded Include TAF

Data at: 0220 UTC 14 Dec 2017

KEST 140205Z AUTO 35022G33KT 10SM OVC016 M03/M06 A2988 RMK AO2 PK WND 34033/0204 T10281056
KEST 140152Z AUTO 35019G28KT 10SM OVC014 M03/M05 A2987 RMK AO2 PK WND 35032/0129 SLP130 T10281050
KEST 140052Z AUTO 35019G26KT 10SM BKN022 OVC027 M02/M05 A2984 RMK AO2 PK WND 34035/0003 SLP119 T10171050
KEST 140035Z AUTO 34024G31KT 10SM BKN024 OVC045 M02/M05 A2984 RMK AO2 PK WND 34035/0003 T10171050
KEST 132352Z AUTO 33027G40KT 10SM FEW031 OVC041 M01/M06 A2981 RMK AO2 PK WND 33050/2258 SLP107 T10111056 10011 21011 51039
KEST 132252Z AUTO 33036G47KT 10SM OVC035 M01/M06 A2978 RMK AO2 PK WND 32047/2252 SLP097 T10061061
KEST 132152Z AUTO 33032G45KT 10SM OVC030 M01/M06 A2974 RMK AO2 PK WND 33051/2053 SLP083 T10061056
KEST 132052Z AUTO 33032G49KT 10SM OVC034 01/M06 A2969 RMK AO2 PK WND 32055/2028 SLP067 T00061056 53012
KEST 132032Z AUTO 33040G55KT 10SM SCT026 OVC035 01/M05 A2969 RMK AO2 PK WND 32055/2028 T00061050
KEST 131952Z AUTO 33029G44KT 10SM OVC027 01/M04 A2967 RMK AO2 PK WND 34055/1930 SLP059 T00061044
KEST 131852Z AUTO 32033G46KT 10SM OVC022 01/M03 A2967 RMK AO2 PK WND 34048/1824 SLP061 T00061033
KEST 131752Z AUTO 33034G44KT 10SM OVC016 00/M03 A2966 RMK AO2 PK WND 33047/1659 SLP056 60000 T00001028 10044 20000 51019
KEST 131726Z AUTO 33033G44KT 10SM OVC015 00/M03 A2966 RMK AO2 PK WND 33047/1659 T00001028
KEST 131652Z AUTO 33029G43KT 10SM OVC014 00/M02 A2965 RMK AO2 PK WND 33049/1634 SLP052 T00001022
KEST 131647Z AUTO 33031G43KT 10SM OVC014 00/M02 A2964 RMK AO2 PK WND 33049/1634
KEST 131552Z AUTO 32040G50KT 10SM OVC015 01/M02 A2960 RMK AO2 PK WND 33050/1552 PRESRR SLP036 T00111017
KEST 131538Z AUTO 32034G47KT 10SM OVC015 01/M01 A2958 RMK AO2 PK WND 32048/1525 T00111011
KEST 131452Z AUTO 33030G43KT 10SM OVC012 02/01 A2954 RMK AO2 PK WND 32043/1447 SNE20 SLP015 P0000 60000 T00170006 53041
KEST 131423Z AUTO 32031G39KT 9SM BKN014 OVC019 01/01 A2951 RMK AO2 PK WND 32040/1400 SNE20 P0000 T00110006
KEST 131352Z AUTO 32030G42KT 10SM -SN OVC016 02/00 A2949 RMK AO2 PK WND 31044/1310 SNB49 SLP998 P0000 T00170000
KEST 131307Z AUTO 32032G41KT 10SM BKN025 OVC032 04/00 A2945 RMK AO2 PK WND 32043/1253 T00390000
KEST 131252Z AUTO 32030G40KT 10SM BKN033 BKN085 04/M01 A2944 RMK AO2 PK WND 32040/1248 SLP980 T00391006
KEST 131152Z AUTO 30024G36KT 10SM CLR 04/M03 A2941 RMK AO2 PK WND 30036/1147 SLP970 T00441028 10044 21006 56011
KEST 131052Z AUTO 29019G32KT 10SM CLR 04/M04 A2941 RMK AO2 PK WND 29032/1046 SLP970 T00391039
KEST 130952Z AUTO 28019G26KT 10SM CLR 03/M04 A2942 RMK AO2 PK WND 28026/0947 SLP972 T00331044
KEST 130852Z AUTO 25018KT 10SM CLR 02/M04 A2945 RMK AO2 SLP983 T00171044 56047
KEST 130752Z AUTO 22011KT 10SM CLR 01/M04 A2948 RMK AO2 SLP994 T00061044
KEST 130652Z AUTO 22010KT 10SM CLR 01/M04 A2953 RMK AO2 SLP013 T00061039
KEST 130552Z AUTO 21013KT 10SM CLR 00/M04 A2959 RMK AO2 PRESFR SLP035 T00001039 10000 21028 400171139 58054
KEST 130452Z AUTO 20010KT 10SM CLR M02/M04 A2965 RMK AO2 SLP057 T10171039
KEST 130352Z AUTO 21009KT 10SM CLR M03/M04 A2971 RMK AO2 SLP080 T10281044
KEST 130252Z AUTO 20012KT 10SM CLR M02/M04 A2976 RMK AO2 SLP097 T10221044 58039
KEST 130152Z AUTO 21011KT 10SM CLR M02/M04 A2981 RMK AO2 SLP115 T10171044
KEST 130052Z AUTO 22013KT 10SM CLR M01/M04 A2984 RMK AO2 SLP127 T10111044
KEST 122352Z AUTO 23013KT 10SM CLR 00/M04 A2988 RMK AO2 SLP138 T00001039 10017 21022 56038
KEST 122252Z AUTO 24011KT 10SM SCT070 01/M03 A2992 RMK AO2 SLP150 T00061033
KEST 122152Z AUTO 24015KT 10SM SCT070 02/M03 A2994 RMK AO2 PRESFR SLP157 T00171033
KEST 122052Z AUTO 26013KT 10SM CLR 01/M04 A3000 RMK AO2 SLP177 T00111039 56038
KEST 121952Z AUTO 24014KT 10SM CLR 00/M05 A3003 RMK AO2 SLP189 T00001050
KEST 121852Z AUTO 25013KT 10SM OVC050 M02/M06 A3007 RMK AO2 SLP206 T10171061
KEST 121752Z AUTO 25013KT 10SM CLR M02/M06 A3011 RMK AO2 SLP218 T10221061 11022 21139 58032
KEST 121652Z AUTO 24008KT 10SM CLR M05/M08 A3016 RMK AO2 SLP235 T10501083
KEST 121552Z AUTO 26006KT 10SM CLR M07/M11 A3019 RMK AO2 SLP248 T10721106
KEST 121452Z AUTO 28007KT 10SM CLR M09/M12 A3021 RMK AO2 SLP255 T10941117 58011